sensor_id;sensor_type;location;lat;lon;timestamp;temperature;humidity
10702;DHT22;5402;50.004;8.246;2023-09-08T00:00:43;17.20;99.90
10702;DHT22;5402;50.004;8.246;2023-09-08T00:03:10;17.40;99.90
10702;DHT22;5402;50.004;8.246;2023-09-08T00:05:37;17.40;99.90
10702;DHT22;5402;50.004;8.246;2023-09-08T00:08:04;17.30;99.90
10702;DHT22;5402;50.004;8.246;2023-09-08T00:10:31;17.30;99.90
10702;DHT22;5402;50.004;8.246;2023-09-08T00:12:57;17.30;99.90
10702;DHT22;5402;50.004;8.246;2023-09-08T00:15:24;17.20;99.90
10702;DHT22;5402;50.004;8.246;2023-09-08T00:17:52;17.10;99.90
10702;DHT22;5402;50.004;8.246;2023-09-08T00:20:19;17.10;99.90
10702;DHT22;5402;50.004;8.246;2023-09-08T00:22:45;17.00;99.90
10702;DHT22;5402;50.004;8.246;2023-09-08T00:25:12;17.10;99.90
10702;DHT22;5402;50.004;8.246;2023-09-08T00:27:39;17.00;99.90
10702;DHT22;5402;50.004;8.246;2023-09-08T00:30:06;17.00;99.90
10702;DHT22;5402;50.004;8.246;2023-09-08T00:32:33;17.00;99.90
10702;DHT22;5402;50.004;8.246;2023-09-08T00:35:01;17.00;99.90
10702;DHT22;5402;50.004;8.246;2023-09-08T00:37:28;17.00;99.90
10702;DHT22;5402;50.004;8.246;2023-09-08T00:39:55;17.00;99.90
10702;DHT22;5402;50.004;8.246;2023-09-08T00:42:21;16.90;99.90
10702;DHT22;5402;50.004;8.246;2023-09-08T00:44:48;16.90;99.90
10702;DHT22;5402;50.004;8.246;2023-09-08T00:47:15;16.90;99.90
10702;DHT22;5402;50.004;8.246;2023-09-08T00:49:42;16.90;99.90
10702;DHT22;5402;50.004;8.246;2023-09-08T00:52:10;16.80;99.90
10702;DHT22;5402;50.004;8.246;2023-09-08T00:54:37;16.80;99.90
10702;DHT22;5402;50.004;8.246;2023-09-08T00:57:04;16.70;99.90
10702;DHT22;5402;50.004;8.246;2023-09-08T00:59:32;16.80;99.90
10702;DHT22;5402;50.004;8.246;2023-09-08T01:01:59;16.80;99.90
10702;DHT22;5402;50.004;8.246;2023-09-08T01:04:26;16.70;99.90
10702;DHT22;5402;50.004;8.246;2023-09-08T01:06:54;16.70;99.90
10702;DHT22;5402;50.004;8.246;2023-09-08T01:09:24;16.70;99.90
10702;DHT22;5402;50.004;8.246;2023-09-08T01:11:51;16.70;99.90
10702;DHT22;5402;50.004;8.246;2023-09-08T01:14:20;16.50;99.90
10702;DHT22;5402;50.004;8.246;2023-09-08T01:16:47;16.60;99.90
10702;DHT22;5402;50.004;8.246;2023-09-08T01:19:16;16.60;99.90
10702;DHT22;5402;50.004;8.246;2023-09-08T01:21:59;16.60;99.90
10702;DHT22;5402;50.004;8.246;2023-09-08T01:24:59;16.60;99.90
10702;DHT22;5402;50.004;8.246;2023-09-08T01:27:29;16.60;99.90
10702;DHT22;5402;50.004;8.246;2023-09-08T01:29:59;16.50;99.90
10702;DHT22;5402;50.004;8.246;2023-09-08T01:32:26;16.50;99.90
10702;DHT22;5402;50.004;8.246;2023-09-08T01:34:53;16.50;99.90
10702;DHT22;5402;50.004;8.246;2023-09-08T01:37:22;16.50;99.90
10702;DHT22;5402;50.004;8.246;2023-09-08T01:39:49;16.50;99.90
10702;DHT22;5402;50.004;8.246;2023-09-08T01:42:17;16.50;99.90
10702;DHT22;5402;50.004;8.246;2023-09-08T01:44:43;16.50;99.90
10702;DHT22;5402;50.004;8.246;2023-09-08T01:47:10;16.50;99.90
10702;DHT22;5402;50.004;8.246;2023-09-08T01:49:37;16.40;99.90
10702;DHT22;5402;50.004;8.246;2023-09-08T01:52:04;16.40;99.90
10702;DHT22;5402;50.004;8.246;2023-09-08T01:54:31;16.40;99.90
10702;DHT22;5402;50.004;8.246;2023-09-08T01:56:58;16.40;99.90
10702;DHT22;5402;50.004;8.246;2023-09-08T01:59:26;16.40;99.90
10702;DHT22;5402;50.004;8.246;2023-09-08T02:01:52;16.30;99.90
10702;DHT22;5402;50.004;8.246;2023-09-08T02:04:19;16.30;99.90
10702;DHT22;5402;50.004;8.246;2023-09-08T02:06:46;16.20;99.90
10702;DHT22;5402;50.004;8.246;2023-09-08T02:09:14;16.30;99.90
10702;DHT22;5402;50.004;8.246;2023-09-08T02:11:41;16.20;99.90
10702;DHT22;5402;50.004;8.246;2023-09-08T02:14:08;16.30;99.90
10702;DHT22;5402;50.004;8.246;2023-09-08T02:16:36;16.20;99.90
10702;DHT22;5402;50.004;8.246;2023-09-08T02:19:02;16.20;99.90
10702;DHT22;5402;50.004;8.246;2023-09-08T02:21:29;16.20;99.90
10702;DHT22;5402;50.004;8.246;2023-09-08T02:23:56;16.10;99.90
10702;DHT22;5402;50.004;8.246;2023-09-08T02:26:24;16.10;99.90
10702;DHT22;5402;50.004;8.246;2023-09-08T02:28:51;16.10;99.90
10702;DHT22;5402;50.004;8.246;2023-09-08T02:31:18;16.10;99.90
10702;DHT22;5402;50.004;8.246;2023-09-08T02:33:46;16.10;99.90
10702;DHT22;5402;50.004;8.246;2023-09-08T02:36:13;16.10;99.90
10702;DHT22;5402;50.004;8.246;2023-09-08T02:38:40;16.00;99.90
10702;DHT22;5402;50.004;8.246;2023-09-08T02:41:06;16.00;99.90
10702;DHT22;5402;50.004;8.246;2023-09-08T02:43:33;16.00;99.90
10702;DHT22;5402;50.004;8.246;2023-09-08T02:46:00;16.00;99.90
10702;DHT22;5402;50.004;8.246;2023-09-08T02:48:26;15.90;99.90
10702;DHT22;5402;50.004;8.246;2023-09-08T02:50:54;15.90;99.90
10702;DHT22;5402;50.004;8.246;2023-09-08T02:53:21;15.80;99.90
10702;DHT22;5402;50.004;8.246;2023-09-08T02:55:48;15.80;99.90
10702;DHT22;5402;50.004;8.246;2023-09-08T02:58:14;15.80;99.90
10702;DHT22;5402;50.004;8.246;2023-09-08T03:00:41;15.80;99.90
10702;DHT22;5402;50.004;8.246;2023-09-08T03:03:08;15.70;99.90
10702;DHT22;5402;50.004;8.246;2023-09-08T03:05:34;15.70;99.90
10702;DHT22;5402;50.004;8.246;2023-09-08T03:08:04;15.70;99.90
10702;DHT22;5402;50.004;8.246;2023-09-08T03:10:30;15.70;99.90
10702;DHT22;5402;50.004;8.246;2023-09-08T03:12:59;15.70;99.90
10702;DHT22;5402;50.004;8.246;2023-09-08T03:15:26;15.70;99.90
10702;DHT22;5402;50.004;8.246;2023-09-08T03:17:53;15.70;99.90
10702;DHT22;5402;50.004;8.246;2023-09-08T03:20:21;15.60;99.90
10702;DHT22;5402;50.004;8.246;2023-09-08T03:22:47;15.60;99.90
10702;DHT22;5402;50.004;8.246;2023-09-08T03:25:16;15.60;99.90
10702;DHT22;5402;50.004;8.246;2023-09-08T03:27:43;15.60;99.90
10702;DHT22;5402;50.004;8.246;2023-09-08T03:30:10;15.60;99.90
10702;DHT22;5402;50.004;8.246;2023-09-08T03:32:37;15.70;99.90
10702;DHT22;5402;50.004;8.246;2023-09-08T03:35:04;15.70;99.90
10702;DHT22;5402;50.004;8.246;2023-09-08T03:37:33;15.70;99.90
10702;DHT22;5402;50.004;8.246;2023-09-08T03:40:00;15.70;99.90
10702;DHT22;5402;50.004;8.246;2023-09-08T03:42:28;15.60;99.90
10702;DHT22;5402;50.004;8.246;2023-09-08T03:44:54;15.60;99.90
10702;DHT22;5402;50.004;8.246;2023-09-08T03:47:21;15.60;99.90
10702;DHT22;5402;50.004;8.246;2023-09-08T03:49:48;15.60;99.90
10702;DHT22;5402;50.004;8.246;2023-09-08T03:52:14;15.50;99.90
10702;DHT22;5402;50.004;8.246;2023-09-08T03:54:41;15.40;99.90
10702;DHT22;5402;50.004;8.246;2023-09-08T03:57:08;15.40;99.90
10702;DHT22;5402;50.004;8.246;2023-09-08T03:59:36;15.30;99.90
10702;DHT22;5402;50.004;8.246;2023-09-08T04:02:03;15.30;99.90
10702;DHT22;5402;50.004;8.246;2023-09-08T04:04:29;15.30;99.90
10702;DHT22;5402;50.004;8.246;2023-09-08T04:06:56;15.30;99.90
10702;DHT22;5402;50.004;8.246;2023-09-08T04:09:23;15.20;99.90
10702;DHT22;5402;50.004;8.246;2023-09-08T04:11:49;15.10;99.90
10702;DHT22;5402;50.004;8.246;2023-09-08T04:14:16;15.00;99.90
10702;DHT22;5402;50.004;8.246;2023-09-08T04:16:44;15.10;99.90
10702;DHT22;5402;50.004;8.246;2023-09-08T04:19:11;15.10;99.90
10702;DHT22;5402;50.004;8.246;2023-09-08T04:21:37;15.10;99.90
10702;DHT22;5402;50.004;8.246;2023-09-08T04:24:05;15.10;99.90
10702;DHT22;5402;50.004;8.246;2023-09-08T04:26:35;15.10;99.90
10702;DHT22;5402;50.004;8.246;2023-09-08T04:29:02;15.10;99.90
10702;DHT22;5402;50.004;8.246;2023-09-08T04:31:29;15.10;99.90
10702;DHT22;5402;50.004;8.246;2023-09-08T04:33:57;15.10;99.90
10702;DHT22;5402;50.004;8.246;2023-09-08T04:36:24;15.10;99.90
10702;DHT22;5402;50.004;8.246;2023-09-08T04:38:50;15.10;99.90
10702;DHT22;5402;50.004;8.246;2023-09-08T04:41:17;15.10;99.90
10702;DHT22;5402;50.004;8.246;2023-09-08T04:43:44;15.10;99.90
10702;DHT22;5402;50.004;8.246;2023-09-08T04:46:10;15.10;99.90
10702;DHT22;5402;50.004;8.246;2023-09-08T04:48:38;15.10;99.90
10702;DHT22;5402;50.004;8.246;2023-09-08T04:51:06;15.10;99.90
10702;DHT22;5402;50.004;8.246;2023-09-08T04:53:32;15.10;99.90
10702;DHT22;5402;50.004;8.246;2023-09-08T04:55:59;15.10;99.90
10702;DHT22;5402;50.004;8.246;2023-09-08T04:58:26;15.00;99.90
10702;DHT22;5402;50.004;8.246;2023-09-08T05:00:52;15.10;99.90
10702;DHT22;5402;50.004;8.246;2023-09-08T05:03:19;15.00;99.90
10702;DHT22;5402;50.004;8.246;2023-09-08T05:05:46;15.00;99.90
10702;DHT22;5402;50.004;8.246;2023-09-08T05:08:14;14.90;99.90
10702;DHT22;5402;50.004;8.246;2023-09-08T05:10:40;14.90;99.90
10702;DHT22;5402;50.004;8.246;2023-09-08T05:13:07;14.90;99.90
10702;DHT22;5402;50.004;8.246;2023-09-08T05:15:34;15.10;99.90
10702;DHT22;5402;50.004;8.246;2023-09-08T05:18:00;15.10;99.90
10702;DHT22;5402;50.004;8.246;2023-09-08T05:20:27;15.20;99.90
10702;DHT22;5402;50.004;8.246;2023-09-08T05:22:54;15.00;99.90
10702;DHT22;5402;50.004;8.246;2023-09-08T05:25:22;15.10;99.90
10702;DHT22;5402;50.004;8.246;2023-09-08T05:27:48;15.10;99.90
10702;DHT22;5402;50.004;8.246;2023-09-08T05:30:15;15.00;99.90
10702;DHT22;5402;50.004;8.246;2023-09-08T05:32:44;14.90;99.90
10702;DHT22;5402;50.004;8.246;2023-09-08T05:35:12;15.10;99.90
10702;DHT22;5402;50.004;8.246;2023-09-08T05:37:39;15.10;99.90
10702;DHT22;5402;50.004;8.246;2023-09-08T05:40:07;15.20;99.90
10702;DHT22;5402;50.004;8.246;2023-09-08T05:42:35;15.20;99.90
10702;DHT22;5402;50.004;8.246;2023-09-08T05:45:02;15.20;99.90
10702;DHT22;5402;50.004;8.246;2023-09-08T05:47:29;15.30;99.90
10702;DHT22;5402;50.004;8.246;2023-09-08T05:49:55;15.30;99.90
10702;DHT22;5402;50.004;8.246;2023-09-08T05:52:22;15.40;99.90
10702;DHT22;5402;50.004;8.246;2023-09-08T05:54:49;15.50;99.90
10702;DHT22;5402;50.004;8.246;2023-09-08T05:57:15;15.60;99.90
10702;DHT22;5402;50.004;8.246;2023-09-08T05:59:43;15.70;99.90
10702;DHT22;5402;50.004;8.246;2023-09-08T06:02:10;15.80;99.90
10702;DHT22;5402;50.004;8.246;2023-09-08T06:04:37;16.00;99.90
10702;DHT22;5402;50.004;8.246;2023-09-08T06:07:04;16.00;99.90
10702;DHT22;5402;50.004;8.246;2023-09-08T06:09:30;16.10;99.90
10702;DHT22;5402;50.004;8.246;2023-09-08T06:11:57;16.20;99.90
10702;DHT22;5402;50.004;8.246;2023-09-08T06:14:23;16.30;99.90
10702;DHT22;5402;50.004;8.246;2023-09-08T06:16:52;16.40;99.90
10702;DHT22;5402;50.004;8.246;2023-09-08T06:19:18;16.50;99.90
10702;DHT22;5402;50.004;8.246;2023-09-08T06:21:45;16.60;99.90
10702;DHT22;5402;50.004;8.246;2023-09-08T06:24:12;16.80;99.90
10702;DHT22;5402;50.004;8.246;2023-09-08T06:26:48;16.90;99.90
10702;DHT22;5402;50.004;8.246;2023-09-08T06:29:16;17.00;99.90
10702;DHT22;5402;50.004;8.246;2023-09-08T06:31:42;17.20;99.90
10702;DHT22;5402;50.004;8.246;2023-09-08T06:34:10;17.30;99.90
10702;DHT22;5402;50.004;8.246;2023-09-08T06:36:37;17.40;99.90
10702;DHT22;5402;50.004;8.246;2023-09-08T06:39:04;17.50;99.90
10702;DHT22;5402;50.004;8.246;2023-09-08T06:41:30;17.60;99.90
10702;DHT22;5402;50.004;8.246;2023-09-08T06:43:57;17.80;99.90
10702;DHT22;5402;50.004;8.246;2023-09-08T06:46:24;18.00;99.90
10702;DHT22;5402;50.004;8.246;2023-09-08T06:48:50;18.10;99.90
10702;DHT22;5402;50.004;8.246;2023-09-08T06:51:18;18.20;99.90
10702;DHT22;5402;50.004;8.246;2023-09-08T06:53:54;18.40;99.90
10702;DHT22;5402;50.004;8.246;2023-09-08T06:56:22;18.50;99.90
10702;DHT22;5402;50.004;8.246;2023-09-08T06:58:49;18.70;99.90
10702;DHT22;5402;50.004;8.246;2023-09-08T07:01:15;18.80;99.90
10702;DHT22;5402;50.004;8.246;2023-09-08T07:03:42;18.90;99.90
10702;DHT22;5402;50.004;8.246;2023-09-08T07:06:09;19.00;99.90
10702;DHT22;5402;50.004;8.246;2023-09-08T07:08:37;19.10;99.90
10702;DHT22;5402;50.004;8.246;2023-09-08T07:11:04;19.30;99.90
10702;DHT22;5402;50.004;8.246;2023-09-08T07:13:30;19.50;99.90
10702;DHT22;5402;50.004;8.246;2023-09-08T07:15:57;19.50;99.90
10702;DHT22;5402;50.004;8.246;2023-09-08T07:18:24;19.60;99.90
10702;DHT22;5402;50.004;8.246;2023-09-08T07:20:51;19.70;99.90
10702;DHT22;5402;50.004;8.246;2023-09-08T07:23:18;19.90;99.90
10702;DHT22;5402;50.004;8.246;2023-09-08T07:25:49;20.00;99.90
10702;DHT22;5402;50.004;8.246;2023-09-08T07:28:16;20.00;99.90
10702;DHT22;5402;50.004;8.246;2023-09-08T07:30:43;20.20;99.90
10702;DHT22;5402;50.004;8.246;2023-09-08T07:33:10;20.30;99.90
10702;DHT22;5402;50.004;8.246;2023-09-08T07:35:37;20.40;99.90
10702;DHT22;5402;50.004;8.246;2023-09-08T07:38:04;20.50;99.90
10702;DHT22;5402;50.004;8.246;2023-09-08T07:40:32;20.60;99.90
10702;DHT22;5402;50.004;8.246;2023-09-08T07:43:00;20.70;99.90
10702;DHT22;5402;50.004;8.246;2023-09-08T07:45:27;20.80;99.90
10702;DHT22;5402;50.004;8.246;2023-09-08T07:47:54;20.90;99.90
10702;DHT22;5402;50.004;8.246;2023-09-08T07:50:22;20.90;99.90
10702;DHT22;5402;50.004;8.246;2023-09-08T07:52:51;21.00;99.90
10702;DHT22;5402;50.004;8.246;2023-09-08T07:55:18;21.00;99.90
10702;DHT22;5402;50.004;8.246;2023-09-08T07:57:46;21.10;99.90
10702;DHT22;5402;50.004;8.246;2023-09-08T08:00:15;21.20;99.90
10702;DHT22;5402;50.004;8.246;2023-09-08T08:02:45;21.30;99.90
10702;DHT22;5402;50.004;8.246;2023-09-08T08:05:12;21.40;99.90
10702;DHT22;5402;50.004;8.246;2023-09-08T08:07:39;21.50;99.90
10702;DHT22;5402;50.004;8.246;2023-09-08T08:10:07;21.60;99.90
10702;DHT22;5402;50.004;8.246;2023-09-08T08:12:34;21.70;99.90
10702;DHT22;5402;50.004;8.246;2023-09-08T08:15:01;21.90;99.90
10702;DHT22;5402;50.004;8.246;2023-09-08T08:17:29;22.00;99.90
10702;DHT22;5402;50.004;8.246;2023-09-08T08:19:56;22.10;99.90
10702;DHT22;5402;50.004;8.246;2023-09-08T08:22:24;22.20;99.90
10702;DHT22;5402;50.004;8.246;2023-09-08T08:24:51;22.30;99.90
10702;DHT22;5402;50.004;8.246;2023-09-08T08:27:17;22.40;99.90
10702;DHT22;5402;50.004;8.246;2023-09-08T08:29:44;22.60;99.90
10702;DHT22;5402;50.004;8.246;2023-09-08T08:32:11;22.70;99.90
10702;DHT22;5402;50.004;8.246;2023-09-08T08:34:39;22.80;99.90
10702;DHT22;5402;50.004;8.246;2023-09-08T08:37:06;22.90;99.90
10702;DHT22;5402;50.004;8.246;2023-09-08T08:39:33;23.00;99.90
10702;DHT22;5402;50.004;8.246;2023-09-08T08:42:06;23.10;99.90
10702;DHT22;5402;50.004;8.246;2023-09-08T08:44:34;23.40;99.90
10702;DHT22;5402;50.004;8.246;2023-09-08T08:47:02;23.60;99.90
10702;DHT22;5402;50.004;8.246;2023-09-08T08:49:30;23.90;99.90
10702;DHT22;5402;50.004;8.246;2023-09-08T08:51:59;24.20;99.90
10702;DHT22;5402;50.004;8.246;2023-09-08T08:54:29;24.30;99.90
10702;DHT22;5402;50.004;8.246;2023-09-08T08:56:56;24.40;99.90
10702;DHT22;5402;50.004;8.246;2023-09-08T08:59:25;24.70;99.90
10702;DHT22;5402;50.004;8.246;2023-09-08T09:01:54;24.60;99.90
10702;DHT22;5402;50.004;8.246;2023-09-08T09:04:21;24.70;99.90
10702;DHT22;5402;50.004;8.246;2023-09-08T09:06:53;24.90;99.90
10702;DHT22;5402;50.004;8.246;2023-09-08T09:09:21;24.80;99.90
10702;DHT22;5402;50.004;8.246;2023-09-08T09:11:48;24.90;99.90
10702;DHT22;5402;50.004;8.246;2023-09-08T09:14:15;25.10;99.90
10702;DHT22;5402;50.004;8.246;2023-09-08T09:16:43;25.20;99.90
10702;DHT22;5402;50.004;8.246;2023-09-08T09:19:18;25.40;99.90
10702;DHT22;5402;50.004;8.246;2023-09-08T09:21:48;25.40;99.90
10702;DHT22;5402;50.004;8.246;2023-09-08T09:24:17;25.50;99.90
10702;DHT22;5402;50.004;8.246;2023-09-08T09:26:45;25.50;99.90
10702;DHT22;5402;50.004;8.246;2023-09-08T09:29:12;25.50;99.90
10702;DHT22;5402;50.004;8.246;2023-09-08T09:31:50;25.50;99.90
10702;DHT22;5402;50.004;8.246;2023-09-08T09:34:18;25.60;99.90
10702;DHT22;5402;50.004;8.246;2023-09-08T09:36:47;25.60;99.90
10702;DHT22;5402;50.004;8.246;2023-09-08T09:39:16;25.60;99.90
10702;DHT22;5402;50.004;8.246;2023-09-08T09:41:45;25.50;99.90
10702;DHT22;5402;50.004;8.246;2023-09-08T09:44:12;25.70;99.90
10702;DHT22;5402;50.004;8.246;2023-09-08T09:46:43;25.90;99.90
10702;DHT22;5402;50.004;8.246;2023-09-08T09:49:10;25.80;99.90
10702;DHT22;5402;50.004;8.246;2023-09-08T09:51:40;25.70;99.90
10702;DHT22;5402;50.004;8.246;2023-09-08T09:54:08;25.60;99.90
10702;DHT22;5402;50.004;8.246;2023-09-08T09:56:37;25.60;99.90
10702;DHT22;5402;50.004;8.246;2023-09-08T09:59:07;25.70;99.90
10702;DHT22;5402;50.004;8.246;2023-09-08T10:01:35;25.70;99.90
10702;DHT22;5402;50.004;8.246;2023-09-08T10:04:02;25.60;99.90
10702;DHT22;5402;50.004;8.246;2023-09-08T10:06:31;25.60;99.90
10702;DHT22;5402;50.004;8.246;2023-09-08T10:08:59;25.60;99.90
10702;DHT22;5402;50.004;8.246;2023-09-08T10:11:29;25.50;99.90
10702;DHT22;5402;50.004;8.246;2023-09-08T10:13:58;25.70;99.90
10702;DHT22;5402;50.004;8.246;2023-09-08T10:16:28;26.00;99.90
10702;DHT22;5402;50.004;8.246;2023-09-08T10:18:58;26.00;99.90
10702;DHT22;5402;50.004;8.246;2023-09-08T10:21:28;26.10;99.90
10702;DHT22;5402;50.004;8.246;2023-09-08T10:23:59;26.20;99.90
10702;DHT22;5402;50.004;8.246;2023-09-08T10:26:31;26.40;99.90
10702;DHT22;5402;50.004;8.246;2023-09-08T10:29:00;26.50;99.90
10702;DHT22;5402;50.004;8.246;2023-09-08T10:31:29;26.30;99.90
10702;DHT22;5402;50.004;8.246;2023-09-08T10:33:57;26.50;99.90
10702;DHT22;5402;50.004;8.246;2023-09-08T10:36:24;26.50;99.90
10702;DHT22;5402;50.004;8.246;2023-09-08T10:38:51;26.40;99.90
10702;DHT22;5402;50.004;8.246;2023-09-08T10:41:27;26.40;99.90
10702;DHT22;5402;50.004;8.246;2023-09-08T10:43:58;26.30;99.90
10702;DHT22;5402;50.004;8.246;2023-09-08T10:46:31;26.30;99.90
10702;DHT22;5402;50.004;8.246;2023-09-08T10:49:02;26.30;99.90
10702;DHT22;5402;50.004;8.246;2023-09-08T10:51:30;26.20;99.90
10702;DHT22;5402;50.004;8.246;2023-09-08T10:53:56;26.20;99.90
10702;DHT22;5402;50.004;8.246;2023-09-08T10:56:27;26.20;99.90
10702;DHT22;5402;50.004;8.246;2023-09-08T10:58:55;26.30;99.90
10702;DHT22;5402;50.004;8.246;2023-09-08T11:01:22;26.50;99.90
10702;DHT22;5402;50.004;8.246;2023-09-08T11:03:54;26.60;99.90
10702;DHT22;5402;50.004;8.246;2023-09-08T11:06:21;26.90;99.90
10702;DHT22;5402;50.004;8.246;2023-09-08T11:08:49;26.90;99.40
10702;DHT22;5402;50.004;8.246;2023-09-08T11:11:18;27.10;99.90
10702;DHT22;5402;50.004;8.246;2023-09-08T11:13:45;27.20;99.70
10702;DHT22;5402;50.004;8.246;2023-09-08T11:16:13;27.30;99.20
10702;DHT22;5402;50.004;8.246;2023-09-08T11:18:40;27.20;99.40
10702;DHT22;5402;50.004;8.246;2023-09-08T11:21:10;27.20;98.90
10702;DHT22;5402;50.004;8.246;2023-09-08T11:23:37;27.30;98.80
10702;DHT22;5402;50.004;8.246;2023-09-08T11:26:04;27.50;99.00
10702;DHT22;5402;50.004;8.246;2023-09-08T11:28:32;27.80;98.80
10702;DHT22;5402;50.004;8.246;2023-09-08T11:30:58;28.10;99.90
10702;DHT22;5402;50.004;8.246;2023-09-08T11:33:25;28.10;98.10
10702;DHT22;5402;50.004;8.246;2023-09-08T11:35:53;28.00;98.10
10702;DHT22;5402;50.004;8.246;2023-09-08T11:38:25;28.10;98.30
10702;DHT22;5402;50.004;8.246;2023-09-08T11:40:53;28.00;97.80
10702;DHT22;5402;50.004;8.246;2023-09-08T11:43:20;28.00;97.60
10702;DHT22;5402;50.004;8.246;2023-09-08T11:45:47;28.20;98.80
10702;DHT22;5402;50.004;8.246;2023-09-08T11:48:14;28.40;98.10
10702;DHT22;5402;50.004;8.246;2023-09-08T11:50:41;28.60;97.60
10702;DHT22;5402;50.004;8.246;2023-09-08T11:53:09;28.60;97.00
10702;DHT22;5402;50.004;8.246;2023-09-08T11:55:40;28.60;96.90
10702;DHT22;5402;50.004;8.246;2023-09-08T11:58:07;28.40;96.40
10702;DHT22;5402;50.004;8.246;2023-09-08T12:00:34;28.40;96.50
10702;DHT22;5402;50.004;8.246;2023-09-08T12:03:10;28.30;96.50
10702;DHT22;5402;50.004;8.246;2023-09-08T12:05:37;28.20;96.10
10702;DHT22;5402;50.004;8.246;2023-09-08T12:08:05;28.40;96.80
10702;DHT22;5402;50.004;8.246;2023-09-08T12:10:39;28.30;96.20
10702;DHT22;5402;50.004;8.246;2023-09-08T12:13:06;28.10;96.00
10702;DHT22;5402;50.004;8.246;2023-09-08T12:15:35;28.10;95.40
10702;DHT22;5402;50.004;8.246;2023-09-08T12:18:04;27.90;96.00
10702;DHT22;5402;50.004;8.246;2023-09-08T12:20:31;28.00;97.20
10702;DHT22;5402;50.004;8.246;2023-09-08T12:23:00;28.00;96.30
10702;DHT22;5402;50.004;8.246;2023-09-08T12:25:29;27.90;96.40
10702;DHT22;5402;50.004;8.246;2023-09-08T12:27:58;28.00;96.50
10702;DHT22;5402;50.004;8.246;2023-09-08T12:30:25;27.90;96.50
10702;DHT22;5402;50.004;8.246;2023-09-08T12:32:56;27.80;96.40
10702;DHT22;5402;50.004;8.246;2023-09-08T12:35:23;27.90;96.80
10702;DHT22;5402;50.004;8.246;2023-09-08T12:37:57;28.20;97.60
10702;DHT22;5402;50.004;8.246;2023-09-08T12:40:24;28.40;96.70
10702;DHT22;5402;50.004;8.246;2023-09-08T12:42:51;28.20;96.00
10702;DHT22;5402;50.004;8.246;2023-09-08T12:45:20;28.10;96.20
10702;DHT22;5402;50.004;8.246;2023-09-08T12:47:47;28.10;96.50
10702;DHT22;5402;50.004;8.246;2023-09-08T12:50:14;28.00;96.20
10702;DHT22;5402;50.004;8.246;2023-09-08T12:52:40;27.80;96.70
10702;DHT22;5402;50.004;8.246;2023-09-08T12:55:07;27.80;95.90
10702;DHT22;5402;50.004;8.246;2023-09-08T12:57:34;27.80;96.20
10702;DHT22;5402;50.004;8.246;2023-09-08T13:00:02;27.80;96.60
10702;DHT22;5402;50.004;8.246;2023-09-08T13:02:30;27.80;96.60
10702;DHT22;5402;50.004;8.246;2023-09-08T13:04:57;27.90;96.70
10702;DHT22;5402;50.004;8.246;2023-09-08T13:07:24;27.80;96.40
10702;DHT22;5402;50.004;8.246;2023-09-08T13:09:51;27.80;96.50
10702;DHT22;5402;50.004;8.246;2023-09-08T13:12:18;28.10;96.70
10702;DHT22;5402;50.004;8.246;2023-09-08T13:14:44;28.10;96.10
10702;DHT22;5402;50.004;8.246;2023-09-08T13:17:12;28.50;96.90
10702;DHT22;5402;50.004;8.246;2023-09-08T13:19:41;28.50;96.60
10702;DHT22;5402;50.004;8.246;2023-09-08T13:22:08;28.40;96.20
10702;DHT22;5402;50.004;8.246;2023-09-08T13:24:36;28.30;96.20
10702;DHT22;5402;50.004;8.246;2023-09-08T13:27:03;28.30;95.40
10702;DHT22;5402;50.004;8.246;2023-09-08T13:29:30;28.20;95.00
10702;DHT22;5402;50.004;8.246;2023-09-08T13:31:57;28.30;95.20
10702;DHT22;5402;50.004;8.246;2023-09-08T13:34:24;28.20;94.40
10702;DHT22;5402;50.004;8.246;2023-09-08T13:36:52;28.10;94.60
10702;DHT22;5402;50.004;8.246;2023-09-08T13:39:19;28.10;95.00
10702;DHT22;5402;50.004;8.246;2023-09-08T13:41:46;28.10;94.90
10702;DHT22;5402;50.004;8.246;2023-09-08T13:44:14;28.10;94.80
10702;DHT22;5402;50.004;8.246;2023-09-08T13:46:40;28.10;94.60
10702;DHT22;5402;50.004;8.246;2023-09-08T13:49:07;28.20;96.70
10702;DHT22;5402;50.004;8.246;2023-09-08T13:51:36;28.30;95.10
10702;DHT22;5402;50.004;8.246;2023-09-08T13:54:05;28.40;96.40
10702;DHT22;5402;50.004;8.246;2023-09-08T13:56:32;28.30;95.80
10702;DHT22;5402;50.004;8.246;2023-09-08T13:59:00;28.30;94.90
10702;DHT22;5402;50.004;8.246;2023-09-08T14:01:27;28.30;95.80
10702;DHT22;5402;50.004;8.246;2023-09-08T14:03:54;28.30;95.40
10702;DHT22;5402;50.004;8.246;2023-09-08T14:06:21;28.40;95.40
10702;DHT22;5402;50.004;8.246;2023-09-08T14:08:48;28.40;95.20
10702;DHT22;5402;50.004;8.246;2023-09-08T14:11:16;28.40;95.00
10702;DHT22;5402;50.004;8.246;2023-09-08T14:13:44;28.40;94.60
10702;DHT22;5402;50.004;8.246;2023-09-08T14:16:11;28.30;95.00
10702;DHT22;5402;50.004;8.246;2023-09-08T14:18:38;28.40;95.80
10702;DHT22;5402;50.004;8.246;2023-09-08T14:21:05;28.30;94.90
10702;DHT22;5402;50.004;8.246;2023-09-08T14:23:32;28.30;94.00
10702;DHT22;5402;50.004;8.246;2023-09-08T14:26:02;28.30;93.50
10702;DHT22;5402;50.004;8.246;2023-09-08T14:28:30;28.20;93.50
10702;DHT22;5402;50.004;8.246;2023-09-08T14:30:59;28.20;94.30
10702;DHT22;5402;50.004;8.246;2023-09-08T14:33:26;28.30;94.40
10702;DHT22;5402;50.004;8.246;2023-09-08T14:35:53;28.30;94.20
10702;DHT22;5402;50.004;8.246;2023-09-08T14:38:19;28.20;94.40
10702;DHT22;5402;50.004;8.246;2023-09-08T14:40:54;28.40;95.10
10702;DHT22;5402;50.004;8.246;2023-09-08T14:43:21;28.40;95.80
10702;DHT22;5402;50.004;8.246;2023-09-08T14:45:49;28.50;94.30
10702;DHT22;5402;50.004;8.246;2023-09-08T14:48:15;28.50;95.40
10702;DHT22;5402;50.004;8.246;2023-09-08T14:50:42;28.50;96.70
10702;DHT22;5402;50.004;8.246;2023-09-08T14:53:10;28.50;95.00
10702;DHT22;5402;50.004;8.246;2023-09-08T14:55:37;28.40;94.10
10702;DHT22;5402;50.004;8.246;2023-09-08T14:58:04;28.30;94.60
10702;DHT22;5402;50.004;8.246;2023-09-08T15:00:31;28.40;94.00
10702;DHT22;5402;50.004;8.246;2023-09-08T15:02:59;28.50;94.10
10702;DHT22;5402;50.004;8.246;2023-09-08T15:05:27;28.50;93.80
10702;DHT22;5402;50.004;8.246;2023-09-08T15:07:53;28.40;93.20
10702;DHT22;5402;50.004;8.246;2023-09-08T15:10:20;28.50;93.80
10702;DHT22;5402;50.004;8.246;2023-09-08T15:12:48;28.50;95.10
10702;DHT22;5402;50.004;8.246;2023-09-08T15:15:15;28.50;93.60
10702;DHT22;5402;50.004;8.246;2023-09-08T15:17:44;28.50;92.10
10702;DHT22;5402;50.004;8.246;2023-09-08T15:20:12;28.40;92.30
10702;DHT22;5402;50.004;8.246;2023-09-08T15:22:39;28.40;93.50
10702;DHT22;5402;50.004;8.246;2023-09-08T15:25:06;28.40;93.00
10702;DHT22;5402;50.004;8.246;2023-09-08T15:27:33;28.50;93.40
10702;DHT22;5402;50.004;8.246;2023-09-08T15:30:00;28.50;93.50
10702;DHT22;5402;50.004;8.246;2023-09-08T15:32:30;28.50;93.40
10702;DHT22;5402;50.004;8.246;2023-09-08T15:34:56;28.40;93.10
10702;DHT22;5402;50.004;8.246;2023-09-08T15:37:24;28.50;92.90
10702;DHT22;5402;50.004;8.246;2023-09-08T15:39:51;28.40;92.70
10702;DHT22;5402;50.004;8.246;2023-09-08T15:42:18;28.50;93.50
10702;DHT22;5402;50.004;8.246;2023-09-08T15:44:44;28.40;93.60
10702;DHT22;5402;50.004;8.246;2023-09-08T15:47:11;28.40;93.20